sensor_id;sensor_type;location;lat;lon;timestamp;P1;durP1;ratioP1;P2;durP2;ratioP2
18263;SDS011;9258;48.668;9.172;2022-09-09T00:01:33;3.60;;;0.70;;
18263;SDS011;9258;48.668;9.172;2022-09-09T00:04:44;1.63;;;0.70;;
18263;SDS011;9258;48.668;9.172;2022-09-09T00:07:51;4.65;;;0.85;;
18263;SDS011;9258;48.668;9.172;2022-09-09T00:10:56;2.08;;;0.65;;
18263;SDS011;9258;48.668;9.172;2022-09-09T00:14:02;1.63;;;0.65;;
18263;SDS011;9258;48.668;9.172;2022-09-09T00:17:10;1.83;;;0.70;;
18263;SDS011;9258;48.668;9.172;2022-09-09T00:20:16;3.10;;;0.80;;
18263;SDS011;9258;48.668;9.172;2022-09-09T00:23:27;1.63;;;0.50;;
18263;SDS011;9258;48.668;9.172;2022-09-09T00:26:32;3.38;;;0.70;;
18263;SDS011;9258;48.668;9.172;2022-09-09T00:29:41;2.15;;;0.73;;
18263;SDS011;9258;48.668;9.172;2022-09-09T00:32:45;2.55;;;0.60;;
18263;SDS011;9258;48.668;9.172;2022-09-09T00:35:48;2.63;;;0.80;;
18263;SDS011;9258;48.668;9.172;2022-09-09T00:38:52;2.22;;;0.70;;
18263;SDS011;9258;48.668;9.172;2022-09-09T00:42:02;1.63;;;0.70;;
18263;SDS011;9258;48.668;9.172;2022-09-09T00:45:19;3.30;;;0.90;;
18263;SDS011;9258;48.668;9.172;2022-09-09T00:48:37;2.55;;;0.65;;
18263;SDS011;9258;48.668;9.172;2022-09-09T00:51:47;1.13;;;0.75;;
18263;SDS011;9258;48.668;9.172;2022-09-09T00:55:03;1.25;;;0.70;;
18263;SDS011;9258;48.668;9.172;2022-09-09T00:58:13;2.65;;;0.65;;
18263;SDS011;9258;48.668;9.172;2022-09-09T01:01:14;4.45;;;0.65;;
18263;SDS011;9258;48.668;9.172;2022-09-09T01:04:16;2.53;;;0.63;;
18263;SDS011;9258;48.668;9.172;2022-09-09T01:07:26;1.70;;;0.60;;
18263;SDS011;9258;48.668;9.172;2022-09-09T01:10:29;4.30;;;0.80;;
18263;SDS011;9258;48.668;9.172;2022-09-09T01:13:40;2.25;;;0.80;;
18263;SDS011;9258;48.668;9.172;2022-09-09T01:16:43;5.00;;;0.80;;
18263;SDS011;9258;48.668;9.172;2022-09-09T01:19:50;3.15;;;0.73;;
18263;SDS011;9258;48.668;9.172;2022-09-09T01:23:03;1.15;;;0.60;;
18263;SDS011;9258;48.668;9.172;2022-09-09T01:26:23;2.50;;;0.70;;
18263;SDS011;9258;48.668;9.172;2022-09-09T01:29:27;1.63;;;0.63;;
18263;SDS011;9258;48.668;9.172;2022-09-09T01:32:40;1.60;;;0.50;;
18263;SDS011;9258;48.668;9.172;2022-09-09T01:35:45;1.35;;;0.60;;
18263;SDS011;9258;48.668;9.172;2022-09-09T01:38:52;0.98;;;0.60;;
18263;SDS011;9258;48.668;9.172;2022-09-09T01:41:55;0.88;;;0.60;;
18263;SDS011;9258;48.668;9.172;2022-09-09T01:44:57;1.38;;;0.50;;
18263;SDS011;9258;48.668;9.172;2022-09-09T01:47:59;1.48;;;0.55;;
18263;SDS011;9258;48.668;9.172;2022-09-09T01:51:02;1.85;;;0.70;;
18263;SDS011;9258;48.668;9.172;2022-09-09T01:54:04;1.52;;;0.57;;
18263;SDS011;9258;48.668;9.172;2022-09-09T01:57:10;1.95;;;0.80;;
18263;SDS011;9258;48.668;9.172;2022-09-09T02:00:19;5.45;;;0.82;;
18263;SDS011;9258;48.668;9.172;2022-09-09T02:03:22;2.58;;;0.57;;
18263;SDS011;9258;48.668;9.172;2022-09-09T02:06:27;3.30;;;0.85;;
18263;SDS011;9258;48.668;9.172;2022-09-09T02:09:33;1.20;;;0.57;;
18263;SDS011;9258;48.668;9.172;2022-09-09T02:12:39;3.15;;;0.75;;
18263;SDS011;9258;48.668;9.172;2022-09-09T02:15:45;3.70;;;0.88;;
18263;SDS011;9258;48.668;9.172;2022-09-09T02:18:53;1.23;;;0.60;;
18263;SDS011;9258;48.668;9.172;2022-09-09T02:21:59;2.33;;;0.70;;
18263;SDS011;9258;48.668;9.172;2022-09-09T02:25:02;5.18;;;1.23;;
18263;SDS011;9258;48.668;9.172;2022-09-09T02:28:07;2.60;;;0.70;;
18263;SDS011;9258;48.668;9.172;2022-09-09T02:31:13;4.55;;;0.95;;
18263;SDS011;9258;48.668;9.172;2022-09-09T02:34:18;1.50;;;0.70;;
18263;SDS011;9258;48.668;9.172;2022-09-09T02:37:24;2.78;;;0.80;;
18263;SDS011;9258;48.668;9.172;2022-09-09T02:40:30;1.48;;;0.80;;
18263;SDS011;9258;48.668;9.172;2022-09-09T02:43:33;3.08;;;0.95;;
18263;SDS011;9258;48.668;9.172;2022-09-09T02:46:37;2.28;;;1.52;;
18263;SDS011;9258;48.668;9.172;2022-09-09T02:49:55;2.40;;;0.70;;
18263;SDS011;9258;48.668;9.172;2022-09-09T02:53:06;4.75;;;1.00;;
18263;SDS011;9258;48.668;9.172;2022-09-09T02:56:13;4.05;;;2.15;;
18263;SDS011;9258;48.668;9.172;2022-09-09T02:59:18;1.13;;;0.65;;
18263;SDS011;9258;48.668;9.172;2022-09-09T03:02:20;2.40;;;0.80;;
18263;SDS011;9258;48.668;9.172;2022-09-09T03:05:22;3.13;;;0.73;;
18263;SDS011;9258;48.668;9.172;2022-09-09T03:08:23;2.72;;;0.73;;
18263;SDS011;9258;48.668;9.172;2022-09-09T03:11:25;5.07;;;0.73;;
18263;SDS011;9258;48.668;9.172;2022-09-09T03:14:28;3.53;;;0.60;;
18263;SDS011;9258;48.668;9.172;2022-09-09T03:17:30;2.97;;;0.65;;
18263;SDS011;9258;48.668;9.172;2022-09-09T03:20:31;1.52;;;0.60;;
18263;SDS011;9258;48.668;9.172;2022-09-09T03:23:33;2.63;;;0.70;;
18263;SDS011;9258;48.668;9.172;2022-09-09T03:26:35;3.53;;;0.95;;
18263;SDS011;9258;48.668;9.172;2022-09-09T03:29:39;1.70;;;0.85;;
18263;SDS011;9258;48.668;9.172;2022-09-09T03:32:40;1.77;;;0.70;;
18263;SDS011;9258;48.668;9.172;2022-09-09T03:35:44;2.70;;;0.70;;
18263;SDS011;9258;48.668;9.172;2022-09-09T03:38:48;1.58;;;0.93;;
18263;SDS011;9258;48.668;9.172;2022-09-09T03:41:50;1.30;;;0.70;;
18263;SDS011;9258;48.668;9.172;2022-09-09T03:44:53;2.47;;;0.80;;
18263;SDS011;9258;48.668;9.172;2022-09-09T03:47:54;1.15;;;0.75;;
18263;SDS011;9258;48.668;9.172;2022-09-09T03:50:57;4.40;;;0.68;;
18263;SDS011;9258;48.668;9.172;2022-09-09T03:54:01;1.98;;;0.80;;
18263;SDS011;9258;48.668;9.172;2022-09-09T03:57:05;2.30;;;0.60;;
18263;SDS011;9258;48.668;9.172;2022-09-09T04:00:08;2.60;;;0.80;;
18263;SDS011;9258;48.668;9.172;2022-09-09T04:03:10;2.15;;;0.60;;
18263;SDS011;9258;48.668;9.172;2022-09-09T04:06:13;2.22;;;1.20;;
18263;SDS011;9258;48.668;9.172;2022-09-09T04:09:15;3.67;;;0.77;;
18263;SDS011;9258;48.668;9.172;2022-09-09T04:12:16;1.60;;;0.60;;
18263;SDS011;9258;48.668;9.172;2022-09-09T04:15:19;2.42;;;0.80;;
18263;SDS011;9258;48.668;9.172;2022-09-09T04:18:21;1.25;;;0.70;;
18263;SDS011;9258;48.668;9.172;2022-09-09T04:21:23;0.95;;;0.70;;
18263;SDS011;9258;48.668;9.172;2022-09-09T04:24:25;2.85;;;0.70;;
18263;SDS011;9258;48.668;9.172;2022-09-09T04:27:27;4.15;;;1.40;;
18263;SDS011;9258;48.668;9.172;2022-09-09T04:30:30;4.40;;;0.80;;
18263;SDS011;9258;48.668;9.172;2022-09-09T04:33:31;1.25;;;0.73;;
18263;SDS011;9258;48.668;9.172;2022-09-09T04:36:33;0.88;;;0.65;;
18263;SDS011;9258;48.668;9.172;2022-09-09T04:39:35;1.60;;;0.85;;
18263;SDS011;9258;48.668;9.172;2022-09-09T04:42:36;2.65;;;0.90;;
18263;SDS011;9258;48.668;9.172;2022-09-09T04:45:40;2.33;;;0.90;;
18263;SDS011;9258;48.668;9.172;2022-09-09T04:48:41;1.13;;;0.75;;
18263;SDS011;9258;48.668;9.172;2022-09-09T04:51:44;1.95;;;0.80;;
18263;SDS011;9258;48.668;9.172;2022-09-09T04:54:46;2.65;;;1.00;;
18263;SDS011;9258;48.668;9.172;2022-09-09T04:57:48;2.75;;;0.80;;
18263;SDS011;9258;48.668;9.172;2022-09-09T05:00:51;1.60;;;0.50;;
18263;SDS011;9258;48.668;9.172;2022-09-09T05:03:52;2.67;;;0.63;;
18263;SDS011;9258;48.668;9.172;2022-09-09T05:06:54;2.28;;;0.60;;
18263;SDS011;9258;48.668;9.172;2022-09-09T05:09:55;4.10;;;0.85;;
18263;SDS011;9258;48.668;9.172;2022-09-09T05:12:57;2.33;;;0.90;;
18263;SDS011;9258;48.668;9.172;2022-09-09T05:16:00;2.15;;;0.88;;
18263;SDS011;9258;48.668;9.172;2022-09-09T05:19:01;4.60;;;0.90;;
18263;SDS011;9258;48.668;9.172;2022-09-09T05:22:03;1.83;;;1.13;;
18263;SDS011;9258;48.668;9.172;2022-09-09T05:25:05;4.30;;;1.85;;
18263;SDS011;9258;48.668;9.172;2022-09-09T05:28:07;1.55;;;0.70;;
18263;SDS011;9258;48.668;9.172;2022-09-09T05:31:10;2.72;;;0.90;;
18263;SDS011;9258;48.668;9.172;2022-09-09T05:34:13;2.60;;;0.77;;
18263;SDS011;9258;48.668;9.172;2022-09-09T05:37:15;2.33;;;0.82;;
18263;SDS011;9258;48.668;9.172;2022-09-09T05:40:18;1.77;;;0.90;;
18263;SDS011;9258;48.668;9.172;2022-09-09T05:43:21;2.75;;;0.90;;
18263;SDS011;9258;48.668;9.172;2022-09-09T05:46:24;1.35;;;0.65;;
18263;SDS011;9258;48.668;9.172;2022-09-09T05:49:26;2.15;;;0.80;;
18263;SDS011;9258;48.668;9.172;2022-09-09T05:52:28;2.78;;;0.90;;
18263;SDS011;9258;48.668;9.172;2022-09-09T05:55:29;3.95;;;0.90;;
18263;SDS011;9258;48.668;9.172;2022-09-09T05:58:31;2.33;;;0.77;;
18263;SDS011;9258;48.668;9.172;2022-09-09T06:01:34;2.20;;;0.80;;
18263;SDS011;9258;48.668;9.172;2022-09-09T06:04:40;3.28;;;0.82;;
18263;SDS011;9258;48.668;9.172;2022-09-09T06:07:41;4.78;;;0.90;;
18263;SDS011;9258;48.668;9.172;2022-09-09T06:10:44;5.82;;;0.80;;
18263;SDS011;9258;48.668;9.172;2022-09-09T06:13:46;2.15;;;0.80;;
18263;SDS011;9258;48.668;9.172;2022-09-09T06:16:49;1.38;;;0.82;;
18263;SDS011;9258;48.668;9.172;2022-09-09T06:19:50;3.28;;;1.08;;
18263;SDS011;9258;48.668;9.172;2022-09-09T06:22:52;1.73;;;0.65;;
18263;SDS011;9258;48.668;9.172;2022-09-09T06:26:00;3.60;;;0.80;;
18263;SDS011;9258;48.668;9.172;2022-09-09T06:29:06;2.42;;;0.90;;
18263;SDS011;9258;48.668;9.172;2022-09-09T06:32:09;2.65;;;0.95;;
18263;SDS011;9258;48.668;9.172;2022-09-09T06:35:11;5.57;;;1.17;;
18263;SDS011;9258;48.668;9.172;2022-09-09T06:38:13;3.42;;;0.80;;
18263;SDS011;9258;48.668;9.172;2022-09-09T06:41:15;2.08;;;0.65;;
18263;SDS011;9258;48.668;9.172;2022-09-09T06:44:18;2.92;;;1.00;;
18263;SDS011;9258;48.668;9.172;2022-09-09T06:47:21;2.53;;;0.70;;
18263;SDS011;9258;48.668;9.172;2022-09-09T06:50:24;4.18;;;0.90;;
18263;SDS011;9258;48.668;9.172;2022-09-09T06:53:26;2.47;;;0.75;;
18263;SDS011;9258;48.668;9.172;2022-09-09T06:56:28;2.13;;;0.80;;
18263;SDS011;9258;48.668;9.172;2022-09-09T06:59:31;2.08;;;0.85;;
18263;SDS011;9258;48.668;9.172;2022-09-09T07:02:34;2.72;;;0.82;;
18263;SDS011;9258;48.668;9.172;2022-09-09T07:05:40;7.25;;;1.58;;
18263;SDS011;9258;48.668;9.172;2022-09-09T07:08:42;2.60;;;0.90;;
18263;SDS011;9258;48.668;9.172;2022-09-09T07:11:44;1.55;;;0.80;;
18263;SDS011;9258;48.668;9.172;2022-09-09T07:14:47;3.20;;;1.13;;
18263;SDS011;9258;48.668;9.172;2022-09-09T07:17:50;3.42;;;0.85;;
18263;SDS011;9258;48.668;9.172;2022-09-09T07:20:54;1.83;;;0.90;;
18263;SDS011;9258;48.668;9.172;2022-09-09T07:23:57;2.30;;;0.85;;
18263;SDS011;9258;48.668;9.172;2022-09-09T07:26:59;3.60;;;1.13;;
18263;SDS011;9258;48.668;9.172;2022-09-09T07:30:02;1.88;;;0.68;;
18263;SDS011;9258;48.668;9.172;2022-09-09T07:33:05;2.55;;;1.20;;
18263;SDS011;9258;48.668;9.172;2022-09-09T07:36:08;1.15;;;0.82;;
18263;SDS011;9258;48.668;9.172;2022-09-09T07:39:13;2.45;;;0.80;;
18263;SDS011;9258;48.668;9.172;2022-09-09T07:42:17;3.75;;;0.93;;
18263;SDS011;9258;48.668;9.172;2022-09-09T07:45:19;2.17;;;0.90;;
18263;SDS011;9258;48.668;9.172;2022-09-09T07:48:22;1.83;;;0.90;;
18263;SDS011;9258;48.668;9.172;2022-09-09T07:51:24;4.55;;;0.93;;
18263;SDS011;9258;48.668;9.172;2022-09-09T07:54:26;4.28;;;1.30;;
18263;SDS011;9258;48.668;9.172;2022-09-09T07:57:28;3.03;;;0.95;;
18263;SDS011;9258;48.668;9.172;2022-09-09T08:00:30;2.15;;;0.90;;
18263;SDS011;9258;48.668;9.172;2022-09-09T08:03:34;3.00;;;0.60;;
18263;SDS011;9258;48.668;9.172;2022-09-09T08:06:36;2.63;;;0.75;;
18263;SDS011;9258;48.668;9.172;2022-09-09T08:09:39;4.47;;;1.15;;
18263;SDS011;9258;48.668;9.172;2022-09-09T08:12:41;1.80;;;0.68;;
18263;SDS011;9258;48.668;9.172;2022-09-09T08:15:42;3.08;;;0.80;;
18263;SDS011;9258;48.668;9.172;2022-09-09T08:18:45;2.17;;;0.52;;
18263;SDS011;9258;48.668;9.172;2022-09-09T08:21:47;3.25;;;0.90;;
18263;SDS011;9258;48.668;9.172;2022-09-09T08:24:49;1.70;;;0.77;;
18263;SDS011;9258;48.668;9.172;2022-09-09T08:27:52;1.95;;;0.80;;
18263;SDS011;9258;48.668;9.172;2022-09-09T08:30:54;3.00;;;0.73;;
18263;SDS011;9258;48.668;9.172;2022-09-09T08:33:57;2.53;;;0.70;;
18263;SDS011;9258;48.668;9.172;2022-09-09T08:37:00;1.75;;;1.00;;
18263;SDS011;9258;48.668;9.172;2022-09-09T08:40:02;1.52;;;0.70;;
18263;SDS011;9258;48.668;9.172;2022-09-09T08:43:04;2.00;;;0.70;;
18263;SDS011;9258;48.668;9.172;2022-09-09T08:46:07;1.65;;;0.90;;
18263;SDS011;9258;48.668;9.172;2022-09-09T08:49:21;2.90;;;0.80;;
18263;SDS011;9258;48.668;9.172;2022-09-09T08:52:37;2.83;;;0.73;;
18263;SDS011;9258;48.668;9.172;2022-09-09T08:55:44;1.50;;;0.73;;
18263;SDS011;9258;48.668;9.172;2022-09-09T08:58:49;2.58;;;0.80;;
18263;SDS011;9258;48.668;9.172;2022-09-09T09:01:55;3.03;;;0.90;;
18263;SDS011;9258;48.668;9.172;2022-09-09T09:05:07;1.98;;;0.73;;
18263;SDS011;9258;48.668;9.172;2022-09-09T09:08:20;2.45;;;0.80;;
18263;SDS011;9258;48.668;9.172;2022-09-09T09:11:35;5.28;;;0.90;;
18263;SDS011;9258;48.668;9.172;2022-09-09T09:14:38;4.25;;;1.02;;
18263;SDS011;9258;48.668;9.172;2022-09-09T09:17:41;3.88;;;0.82;;
18263;SDS011;9258;48.668;9.172;2022-09-09T09:20:47;4.10;;;1.00;;
18263;SDS011;9258;48.668;9.172;2022-09-09T09:23:56;3.90;;;0.93;;
18263;SDS011;9258;48.668;9.172;2022-09-09T09:26:58;1.60;;;0.38;;
18263;SDS011;9258;48.668;9.172;2022-09-09T09:30:12;1.10;;;0.40;;
18263;SDS011;9258;48.668;9.172;2022-09-09T09:33:17;0.40;;;0.17;;
18263;SDS011;9258;48.668;9.172;2022-09-09T09:36:37;0.95;;;0.30;;
18263;SDS011;9258;48.668;9.172;2022-09-09T09:39:41;0.52;;;0.30;;
18263;SDS011;9258;48.668;9.172;2022-09-09T09:42:48;1.45;;;0.47;;
18263;SDS011;9258;48.668;9.172;2022-09-09T09:45:52;1.20;;;0.40;;
18263;SDS011;9258;48.668;9.172;2022-09-09T09:48:57;2.35;;;0.47;;
18263;SDS011;9258;48.668;9.172;2022-09-09T09:52:03;1.92;;;0.50;;
18263;SDS011;9258;48.668;9.172;2022-09-09T09:55:11;1.90;;;0.40;;
18263;SDS011;9258;48.668;9.172;2022-09-09T09:58:14;3.00;;;0.40;;
18263;SDS011;9258;48.668;9.172;2022-09-09T10:01:20;1.17;;;0.50;;
18263;SDS011;9258;48.668;9.172;2022-09-09T10:04:24;1.45;;;0.50;;
18263;SDS011;9258;48.668;9.172;2022-09-09T10:07:27;2.00;;;0.60;;
18263;SDS011;9258;48.668;9.172;2022-09-09T10:10:33;2.42;;;0.50;;
18263;SDS011;9258;48.668;9.172;2022-09-09T10:13:53;2.05;;;0.52;;
18263;SDS011;9258;48.668;9.172;2022-09-09T10:17:09;1.38;;;0.50;;
18263;SDS011;9258;48.668;9.172;2022-09-09T10:20:22;2.67;;;0.50;;
18263;SDS011;9258;48.668;9.172;2022-09-09T10:23:41;1.92;;;0.70;;
18263;SDS011;9258;48.668;9.172;2022-09-09T10:26:58;3.55;;;0.80;;
18263;SDS011;9258;48.668;9.172;2022-09-09T10:30:09;2.63;;;0.70;;
18263;SDS011;9258;48.668;9.172;2022-09-09T10:33:18;3.88;;;0.60;;
18263;SDS011;9258;48.668;9.172;2022-09-09T10:36:29;5.47;;;0.93;;
18263;SDS011;9258;48.668;9.172;2022-09-09T10:39:33;2.25;;;0.65;;
18263;SDS011;9258;48.668;9.172;2022-09-09T10:42:37;1.63;;;0.70;;
18263;SDS011;9258;48.668;9.172;2022-09-09T10:45:42;1.27;;;0.55;;
18263;SDS011;9258;48.668;9.172;2022-09-09T10:49:01;1.63;;;0.60;;
18263;SDS011;9258;48.668;9.172;2022-09-09T10:52:17;2.70;;;0.60;;
18263;SDS011;9258;48.668;9.172;2022-09-09T10:55:25;2.00;;;0.55;;
18263;SDS011;9258;48.668;9.172;2022-09-09T10:58:35;1.98;;;0.70;;
18263;SDS011;9258;48.668;9.172;2022-09-09T11:01:43;4.28;;;0.68;;
18263;SDS011;9258;48.668;9.172;2022-09-09T11:04:49;2.75;;;0.70;;
18263;SDS011;9258;48.668;9.172;2022-09-09T11:07:57;1.50;;;0.60;;
18263;SDS011;9258;48.668;9.172;2022-09-09T11:11:04;0.93;;;0.40;;
18263;SDS011;9258;48.668;9.172;2022-09-09T11:14:18;1.13;;;0.60;;
18263;SDS011;9258;48.668;9.172;2022-09-09T11:17:26;1.83;;;0.80;;
18263;SDS011;9258;48.668;9.172;2022-09-09T11:20:33;2.60;;;0.88;;
18263;SDS011;9258;48.668;9.172;2022-09-09T11:23:37;3.22;;;0.60;;
18263;SDS011;9258;48.668;9.172;2022-09-09T11:26:45;2.80;;;0.63;;
18263;SDS011;9258;48.668;9.172;2022-09-09T11:29:58;2.78;;;0.65;;
18263;SDS011;9258;48.668;9.172;2022-09-09T11:37:00;1.20;;;0.45;;
18263;SDS011;9258;48.668;9.172;2022-09-09T11:40:18;3.60;;;1.08;;
18263;SDS011;9258;48.668;9.172;2022-09-09T11:43:25;1.20;;;0.55;;
18263;SDS011;9258;48.668;9.172;2022-09-09T11:46:31;1.17;;;0.40;;
18263;SDS011;9258;48.668;9.172;2022-09-09T11:49:40;0.50;;;0.20;;
18263;SDS011;9258;48.668;9.172;2022-09-09T11:52:43;0.82;;;0.30;;
18263;SDS011;9258;48.668;9.172;2022-09-09T11:55:46;1.25;;;0.40;;
18263;SDS011;9258;48.668;9.172;2022-09-09T11:58:55;2.25;;;0.20;;
18263;SDS011;9258;48.668;9.172;2022-09-09T12:01:59;1.55;;;0.30;;
18263;SDS011;9258;48.668;9.172;2022-09-09T12:05:04;2.10;;;0.40;;
18263;SDS011;9258;48.668;9.172;2022-09-09T12:08:08;2.13;;;0.30;;
18263;SDS011;9258;48.668;9.172;2022-09-09T12:11:12;0.40;;;0.10;;
18263;SDS011;9258;48.668;9.172;2022-09-09T12:14:35;0.52;;;0.17;;
18263;SDS011;9258;48.668;9.172;2022-09-09T12:17:41;0.43;;;0.10;;
18263;SDS011;9258;48.668;9.172;2022-09-09T12:20:50;0.65;;;0.30;;
18263;SDS011;9258;48.668;9.172;2022-09-09T12:23:58;1.02;;;0.40;;
18263;SDS011;9258;48.668;9.172;2022-09-09T12:27:07;0.60;;;0.20;;
18263;SDS011;9258;48.668;9.172;2022-09-09T12:30:19;2.35;;;0.32;;
18263;SDS011;9258;48.668;9.172;2022-09-09T12:33:23;0.82;;;0.28;;
18263;SDS011;9258;48.668;9.172;2022-09-09T12:36:27;1.67;;;0.50;;
18263;SDS011;9258;48.668;9.172;2022-09-09T12:39:32;1.50;;;0.50;;
18263;SDS011;9258;48.668;9.172;2022-09-09T12:42:39;1.17;;;0.52;;
18263;SDS011;9258;48.668;9.172;2022-09-09T12:45:42;2.20;;;0.50;;
18263;SDS011;9258;48.668;9.172;2022-09-09T12:48:46;1.17;;;0.38;;
18263;SDS011;9258;48.668;9.172;2022-09-09T12:51:49;0.75;;;0.20;;
18263;SDS011;9258;48.668;9.172;2022-09-09T12:54:51;1.17;;;0.32;;
18263;SDS011;9258;48.668;9.172;2022-09-09T12:57:54;1.85;;;0.57;;
18263;SDS011;9258;48.668;9.172;2022-09-09T13:00:56;2.15;;;0.50;;
18263;SDS011;9258;48.668;9.172;2022-09-09T13:03:58;1.17;;;0.30;;
18263;SDS011;9258;48.668;9.172;2022-09-09T13:07:05;2.67;;;0.50;;
18263;SDS011;9258;48.668;9.172;2022-09-09T13:10:12;5.22;;;0.52;;
18263;SDS011;9258;48.668;9.172;2022-09-09T13:13:17;2.97;;;0.47;;
18263;SDS011;9258;48.668;9.172;2022-09-09T13:16:25;1.85;;;0.38;;
18263;SDS011;9258;48.668;9.172;2022-09-09T13:19:31;1.60;;;0.40;;
18263;SDS011;9258;48.668;9.172;2022-09-09T13:22:36;1.55;;;0.45;;
18263;SDS011;9258;48.668;9.172;2022-09-09T13:25:40;1.83;;;0.35;;
18263;SDS011;9258;48.668;9.172;2022-09-09T13:28:43;2.28;;;0.50;;
18263;SDS011;9258;48.668;9.172;2022-09-09T13:31:47;3.08;;;0.40;;
18263;SDS011;9258;48.668;9.172;2022-09-09T13:34:53;2.40;;;0.47;;
18263;SDS011;9258;48.668;9.172;2022-09-09T13:37:56;1.52;;;0.50;;
18263;SDS011;9258;48.668;9.172;2022-09-09T13:40:58;1.42;;;0.50;;
18263;SDS011;9258;48.668;9.172;2022-09-09T13:44:04;1.17;;;0.90;;
18263;SDS011;9258;48.668;9.172;2022-09-09T13:47:17;1.63;;;0.50;;
18263;SDS011;9258;48.668;9.172;2022-09-09T13:50:20;6.05;;;0.85;;
18263;SDS011;9258;48.668;9.172;2022-09-09T13:53:23;1.55;;;0.50;;
18263;SDS011;9258;48.668;9.172;2022-09-09T13:56:24;2.38;;;0.40;;
18263;SDS011;9258;48.668;9.172;2022-09-09T13:59:26;1.48;;;0.40;;
18263;SDS011;9258;48.668;9.172;2022-09-09T14:02:29;1.58;;;0.65;;
18263;SDS011;9258;48.668;9.172;2022-09-09T14:05:31;1.13;;;0.50;;
18263;SDS011;9258;48.668;9.172;2022-09-09T14:08:34;1.33;;;0.43;;
18263;SDS011;9258;48.668;9.172;2022-09-09T14:11:37;3.65;;;0.60;;
18263;SDS011;9258;48.668;9.172;2022-09-09T14:14:38;5.10;;;0.40;;
18263;SDS011;9258;48.668;9.172;2022-09-09T14:17:43;1.10;;;0.38;;
18263;SDS011;9258;48.668;9.172;2022-09-09T14:20:44;2.03;;;0.60;;
18263;SDS011;9258;48.668;9.172;2022-09-09T14:23:46;3.60;;;0.35;;
18263;SDS011;9258;48.668;9.172;2022-09-09T14:26:48;3.03;;;0.43;;
18263;SDS011;9258;48.668;9.172;2022-09-09T14:29:50;1.67;;;0.40;;
18263;SDS011;9258;48.668;9.172;2022-09-09T14:32:52;1.60;;;0.28;;
18263;SDS011;9258;48.668;9.172;2022-09-09T14:35:55;0.38;;;0.20;;
18263;SDS011;9258;48.668;9.172;2022-09-09T14:38:58;1.30;;;0.30;;
18263;SDS011;9258;48.668;9.172;2022-09-09T14:42:02;2.70;;;0.70;;
18263;SDS011;9258;48.668;9.172;2022-09-09T14:45:04;1.15;;;0.40;;
18263;SDS011;9258;48.668;9.172;2022-09-09T14:48:08;0.43;;;0.13;;
18263;SDS011;9258;48.668;9.172;2022-09-09T14:51:10;1.63;;;0.40;;
18263;SDS011;9258;48.668;9.172;2022-09-09T14:54:13;1.90;;;0.40;;
18263;SDS011;9258;48.668;9.172;2022-09-09T14:57:16;2.70;;;0.38;;
18263;SDS011;9258;48.668;9.172;2022-09-09T15:00:19;1.70;;;0.30;;
18263;SDS011;9258;48.668;9.172;2022-09-09T15:03:26;1.73;;;0.30;;
18263;SDS011;9258;48.668;9.172;2022-09-09T15:06:30;0.70;;;0.30;;
18263;SDS011;9258;48.668;9.172;2022-09-09T15:09:34;1.20;;;0.20;;
18263;SDS011;9258;48.668;9.172;2022-09-09T15:15:53;1.85;;;0.63;;
18263;SDS011;9258;48.668;9.172;2022-09-09T15:19:08;1.15;;;0.30;;
18263;SDS011;9258;48.668;9.172;2022-09-09T15:24:51;0.80;;;0.30;;
18263;SDS011;9258;48.668;9.172;2022-09-09T15:26:19;2.70;;;0.50;;
18263;SDS011;9258;48.668;9.172;2022-09-09T15:29:41;0.93;;;0.32;;
18263;SDS011;9258;48.668;9.172;2022-09-09T15:33:07;1.27;;;0.40;;
18263;SDS011;9258;48.668;9.172;2022-09-09T15:40:31;3.67;;;0.60;;
18263;SDS011;9258;48.668;9.172;2022-09-09T15:43:33;2.38;;;0.55;;
18263;SDS011;9258;48.668;9.172;2022-09-09T15:46:35;1.90;;;0.45;;
18263;SDS011;9258;48.668;9.172;2022-09-09T15:49:38;0.85;;;0.40;;
18263;SDS011;9258;48.668;9.172;2022-09-09T15:52:41;2.15;;;0.52;;
18263;SDS011;9258;48.668;9.172;2022-09-09T15:55:42;2.03;;;0.30;;
18263;SDS011;9258;48.668;9.172;2022-09-09T15:58:45;2.55;;;0.20;;
18263;SDS011;9258;48.668;9.172;2022-09-09T16:01:47;1.52;;;0.30;;
18263;SDS011;9258;48.668;9.172;2022-09-09T16:04:51;1.58;;;0.30;;
18263;SDS011;9258;48.668;9.172;2022-09-09T16:07:54;2.03;;;0.30;;
18263;SDS011;9258;48.668;9.172;2022-09-09T16:10:55;2.15;;;0.55;;
18263;SDS011;9258;48.668;9.172;2022-09-09T16:13:58;2.45;;;0.90;;
18263;SDS011;9258;48.668;9.172;2022-09-09T16:17:02;3.22;;;0.60;;
18263;SDS011;9258;48.668;9.172;2022-09-09T16:20:05;1.10;;;0.30;;
18263;SDS011;9258;48.668;9.172;2022-09-09T16:23:10;1.10;;;0.40;;
18263;SDS011;9258;48.668;9.172;2022-09-09T16:26:12;1.17;;;0.40;;
18263;SDS011;9258;48.668;9.172;2022-09-09T16:29:15;0.77;;;0.32;;
18263;SDS011;9258;48.668;9.172;2022-09-09T16:32:18;1.50;;;0.30;;
18263;SDS011;9258;48.668;9.172;2022-09-09T16:35:20;1.25;;;0.38;;
18263;SDS011;9258;48.668;9.172;2022-09-09T16:38:23;0.93;;;0.40;;
18263;SDS011;9258;48.668;9.172;2022-09-09T16:41:25;2.00;;;0.52;;
18263;SDS011;9258;48.668;9.172;2022-09-09T16:44:27;1.48;;;0.40;;
18263;SDS011;9258;48.668;9.172;2022-09-09T16:47:29;1.23;;;0.22;;
18263;SDS011;9258;48.668;9.172;2022-09-09T16:50:31;1.58;;;0.40;;
18263;SDS011;9258;48.668;9.172;2022-09-09T16:53:34;2.30;;;0.30;;
18263;SDS011;9258;48.668;9.172;2022-09-09T16:56:36;0.95;;;0.20;;
18263;SDS011;9258;48.668;9.172;2022-09-09T16:59:41;2.08;;;0.30;;
18263;SDS011;9258;48.668;9.172;2022-09-09T17:02:42;0.88;;;0.30;;
18263;SDS011;9258;48.668;9.172;2022-09-09T17:05:45;1.10;;;0.40;;
18263;SDS011;9258;48.668;9.172;2022-09-09T17:08:47;1.85;;;0.40;;
18263;SDS011;9258;48.668;9.172;2022-09-09T17:11:50;1.65;;;0.50;;
18263;SDS011;9258;48.668;9.172;2022-09-09T17:14:52;2.00;;;0.40;;
18263;SDS011;9258;48.668;9.172;2022-09-09T17:17:55;3.03;;;1.10;;
18263;SDS011;9258;48.668;9.172;2022-09-09T17:21:01;3.40;;;0.52;;
18263;SDS011;9258;48.668;9.172;2022-09-09T17:24:05;0.77;;;0.40;;
18263;SDS011;9258;48.668;9.172;2022-09-09T17:27:07;0.75;;;0.50;;
18263;SDS011;9258;48.668;9.172;2022-09-09T17:30:09;1.17;;;0.30;;
18263;SDS011;9258;48.668;9.172;2022-09-09T17:33:12;0.60;;;0.20;;
18263;SDS011;9258;48.668;9.172;2022-09-09T17:36:16;0.47;;;0.30;;
18263;SDS011;9258;48.668;9.172;2022-09-09T17:39:22;0.93;;;0.40;;
18263;SDS011;9258;48.668;9.172;2022-09-09T17:42:26;0.52;;;0.32;;
18263;SDS011;9258;48.668;9.172;2022-09-09T17:45:28;0.70;;;0.22;;
18263;SDS011;9258;48.668;9.172;2022-09-09T17:48:32;3.58;;;0.50;;
18263;SDS011;9258;48.668;9.172;2022-09-09T17:51:34;0.47;;;0.25;;
18263;SDS011;9258;48.668;9.172;2022-09-09T17:54:38;0.93;;;0.32;;
18263;SDS011;9258;48.668;9.172;2022-09-09T17:57:41;0.68;;;0.28;;
18263;SDS011;9258;48.668;9.172;2022-09-09T18:00:43;1.95;;;0.25;;
18263;SDS011;9258;48.668;9.172;2022-09-09T18:03:45;2.00;;;0.52;;
18263;SDS011;9258;48.668;9.172;2022-09-09T18:06:48;1.25;;;0.30;;
18263;SDS011;9258;48.668;9.172;2022-09-09T18:09:53;0.77;;;0.30;;
18263;SDS011;9258;48.668;9.172;2022-09-09T18:12:55;0.70;;;0.20;;
18263;SDS011;9258;48.668;9.172;2022-09-09T18:15:57;0.55;;;0.20;;
18263;SDS011;9258;48.668;9.172;2022-09-09T18:19:00;1.83;;;0.40;;
18263;SDS011;9258;48.668;9.172;2022-09-09T18:22:04;0.65;;;0.47;;
18263;SDS011;9258;48.668;9.172;2022-09-09T18:25:07;1.10;;;0.32;;
18263;SDS011;9258;48.668;9.172;2022-09-09T18:28:09;0.50;;;0.20;;
18263;SDS011;9258;48.668;9.172;2022-09-09T18:31:12;1.05;;;0.30;;
18263;SDS011;9258;48.668;9.172;2022-09-09T18:34:16;1.67;;;0.35;;
18263;SDS011;9258;48.668;9.172;2022-09-09T18:37:21;1.65;;;0.52;;
18263;SDS011;9258;48.668;9.172;2022-09-09T18:40:24;1.50;;;0.38;;
18263;SDS011;9258;48.668;9.172;2022-09-09T18:43:26;2.05;;;0.45;;
18263;SDS011;9258;48.668;9.172;2022-09-09T18:46:28;1.27;;;0.40;;
18263;SDS011;9258;48.668;9.172;2022-09-09T18:49:33;1.90;;;0.50;;
18263;SDS011;9258;48.668;9.172;2022-09-09T18:52:35;2.67;;;0.30;;
18263;SDS011;9258;48.668;9.172;2022-09-09T18:55:39;1.73;;;0.43;;
18263;SDS011;9258;48.668;9.172;2022-09-09T18:58:41;0.90;;;0.40;;
18263;SDS011;9258;48.668;9.172;2022-09-09T19:01:43;1.83;;;0.43;;